Terminal Aerodrome Forecast
Issued by NWS Atlanta, GA

Home | Current Version | Previous Version | Text Only | Print | Product List | Glossary On
Versions: 1 2 3 4 5 6 7 8 9 10 11 12 13 14 15 16 17 18 19 20 21 22 23 24 25 26 27 28 29 30 31 32 33 34 35 36
305
FTUS42 KFFC 231138
TAFATL
TAF
KATL 231138Z 2312/2418 26006KT P6SM SCT020
     FM231400 29006KT P6SM SCT025 SCT120
     FM231600 31007KT P6SM VCSH BKN045
      TEMPO 2317/2321 3SM TSRA BKN035CB
     FM240000 32006KT P6SM SCT045 SCT120
     FM241300 02005KT P6SM SCT035=

USA.gov is the U.S. government's official web portal to all federal, state and local government web resources and services.